Time;durP1;ratioP1;P1;durP2;ratioP2;P2;SDS_P1;SDS_P2;PMS_P1;PMS_P2;Temp;Humidity;BMP_temperature;BMP_pressure;BME280_temperature;BME280_humidity;BME280_pressure;Samples;Min_cycle;Max_cycle;Signal;HPM_P1;HPM_P2
2022/04/11 00:01:07;;;;;;;7.77;2.50;;;;;;;0.84;100.00;101175.34;5002945;28;20205;-72
2022/04/11 00:03:34;;;;;;;9.27;2.30;;;;;;;0.82;100.00;101173.59;5000965;28;20211;-71
2022/04/11 00:06:01;;;;;;;9.20;2.40;;;;;;;0.84;100.00;101171.91;5008877;28;20204;-72
2022/04/11 00:08:27;;;;;;;7.53;2.63;;;;;;;0.83;100.00;101177.91;5008527;28;20215;-72
2022/04/11 00:10:54;;;;;;;7.00;2.67;;;;;;;0.83;100.00;101177.91;5007368;28;20212;-72
2022/04/11 00:13:20;;;;;;;5.83;2.60;;;;;;;0.83;100.00;101171.06;5008879;28;20696;-72
2022/04/11 00:15:47;;;;;;;5.07;2.27;;;;;;;0.84;100.00;101174.47;5010149;28;20201;-72
2022/04/11 00:18:13;;;;;;;5.33;2.50;;;;;;;0.83;100.00;101176.19;5009352;28;20223;-72
2022/04/11 00:20:42;;;;;;;4.30;2.40;;;;;;;0.82;100.00;101171.88;5009512;28;20196;-72
2022/04/11 00:23:08;;;;;;;4.70;2.20;;;;;;;0.85;100.00;101171.09;5009053;28;20205;-72
2022/04/11 00:25:35;;;;;;;6.70;2.30;;;;;;;0.85;100.00;101174.53;5009769;28;20209;-72
2022/04/11 00:28:01;;;;;;;5.50;2.30;;;;;;;0.86;100.00;101172.81;5009558;28;20291;-72
2022/04/11 00:30:27;;;;;;;4.43;2.90;;;;;;;0.87;100.00;101170.28;4991796;28;20209;-72
2022/04/11 00:32:54;;;;;;;5.00;2.33;;;;;;;0.84;100.00;101175.34;5004539;28;20214;-72
2022/04/11 00:35:22;;;;;;;4.90;2.47;;;;;;;0.83;100.00;101176.19;5001296;28;20712;-72
2022/04/11 00:37:49;;;;;;;4.60;2.07;;;;;;;0.80;100.00;101173.56;4991663;28;20226;-72
2022/04/11 00:40:16;;;;;;;8.13;2.37;;;;;;;0.81;100.00;101170.16;4979990;28;20195;-71
2022/04/11 00:42:43;;;;;;;4.50;2.67;;;;;;;0.82;100.00;101173.59;4991245;28;20257;-71
2022/04/11 00:45:09;;;;;;;6.13;2.43;;;;;;;0.82;100.00;101178.72;4991641;28;20204;-71
2022/04/11 00:47:36;;;;;;;8.00;2.40;;;;;;;0.79;100.00;101178.66;4985696;28;20314;-72
2022/04/11 00:50:06;;;;;;;6.87;2.57;;;;;;;0.75;100.00;101176.00;4991520;28;20675;-72
2022/04/11 00:52:34;;;;;;;7.57;2.13;;;;;;;0.74;100.00;101182.00;4985842;28;20209;-72
2022/04/11 00:55:03;;;;;;;3.33;2.30;;;;;;;0.74;100.00;101181.13;4992844;28;20698;-72
2022/04/11 00:57:30;;;;;;;6.47;2.20;;;;;;;0.74;100.00;101184.56;5011330;28;20221;-72
2022/04/11 00:59:59;;;;;;;6.53;2.37;;;;;;;0.73;100.00;101176.81;4997910;28;20205;-73
2022/04/11 01:02:26;;;;;;;8.23;2.77;;;;;;;0.70;100.00;101187.91;5005753;28;20198;-73
2022/04/11 01:04:52;;;;;;;5.90;2.40;;;;;;;0.71;100.00;101188.75;5010292;28;20190;-73
2022/04/11 01:07:20;;;;;;;5.23;2.57;;;;;;;0.69;100.00;101187.84;4990408;28;20235;-73
2022/04/11 01:09:46;;;;;;;8.77;2.67;;;;;;;0.69;100.00;101191.28;4991991;28;20220;-72
2022/04/11 01:12:15;;;;;;;10.13;2.53;;;;;;;0.68;100.00;101183.53;5007064;28;20198;-73
2022/04/11 01:14:42;;;;;;;4.87;2.40;;;;;;;0.62;100.00;101197.09;5001043;28;20207;-73
2022/04/11 01:17:10;;;;;;;6.90;2.40;;;;;;;0.59;100.00;101193.59;4989992;28;20205;-73
2022/04/11 01:19:36;;;;;;;6.53;2.53;;;;;;;0.59;100.00;101194.44;4991778;28;20216;-73
2022/04/11 01:22:05;;;;;;;5.13;2.40;;;;;;;0.60;100.00;101197.88;4991433;28;20208;-74
2022/04/11 01:24:34;;;;;;;8.53;2.50;;;;;;;0.57;100.00;101196.97;4985743;28;20300;-73
2022/04/11 01:27:00;;;;;;;4.57;2.20;;;;;;;0.55;100.00;101196.09;4986580;28;20205;-73
2022/04/11 01:29:28;;;;;;;4.67;2.37;;;;;;;0.54;100.00;101196.91;4986374;28;20259;-73
2022/04/11 01:31:56;;;;;;;8.13;2.50;;;;;;;0.53;100.00;101202.03;5007591;28;20193;-72
2022/04/11 01:34:22;;;;;;;7.13;2.57;;;;;;;0.49;100.00;101197.63;4991026;28;20207;-73
2022/04/11 01:36:49;;;;;;;3.80;2.13;;;;;;;0.46;100.00;101206.13;4990765;28;20236;-72
2022/04/11 01:39:16;;;;;;;7.80;2.10;;;;;;;0.46;100.00;101198.44;5008888;28;20228;-72
2022/04/11 01:41:43;;;;;;;8.63;2.30;;;;;;;0.42;100.00;101201.72;5012293;28;20254;-72
2022/04/11 01:44:09;;;;;;;6.53;2.47;;;;;;;0.35;100.00;101193.03;5005520;28;20235;-72
2022/04/11 01:46:35;;;;;;;7.33;2.30;;;;;;;0.36;100.00;101199.03;5013943;28;20206;-72
2022/04/11 01:49:13;;;;;;;5.33;1.97;;;;;;;0.32;100.00;101192.97;5011237;28;20233;-72
2022/04/11 01:51:39;;;;;;;6.10;2.40;;;;;;;0.28;100.00;101193.72;5011714;28;20208;-72
2022/04/11 01:54:06;;;;;;;4.80;2.10;;;;;;;0.25;100.00;101208.16;5012332;28;20299;-72
2022/04/11 01:56:34;;;;;;;6.13;1.80;;;;;;;0.20;100.00;101202.91;5004885;28;20200;-71
2022/04/11 01:59:00;;;;;;;5.13;2.33;;;;;;;0.13;100.00;101207.00;5005552;28;20231;-72
2022/04/11 02:01:27;;;;;;;6.87;2.20;;;;;;;0.05;100.00;101207.63;5010536;28;20276;-72
2022/04/11 02:03:53;;;;;;;8.87;2.20;;;;;;;-0.01;100.00;101204.09;5008500;28;20276;-72
2022/04/11 02:06:20;;;;;;;5.80;2.30;;;;;;;-0.09;100.00;101212.41;5003312;28;20300;-72
2022/04/11 02:08:46;;;;;;;5.90;1.97;;;;;;;-0.04;100.00;101208.25;5028671;28;20248;-72
2022/04/11 02:11:15;;;;;;;6.23;2.00;;;;;;;-0.15;100.00;101210.53;5008569;28;20192;-70
2022/04/11 02:13:43;;;;;;;3.57;1.80;;;;;;;-0.21;100.00;101210.41;5004283;28;20220;-72
2022/04/11 02:16:10;;;;;;;5.27;2.10;;;;;;;-0.30;100.00;101205.88;5015547;28;20254;-72
2022/04/11 02:18:36;;;;;;;4.60;1.90;;;;;;;-0.33;100.00;101210.06;5016089;28;20200;-72
2022/04/11 02:21:03;;;;;;;4.50;2.20;;;;;;;-0.39;100.00;101205.59;5015122;28;20201;-72
2022/04/11 02:23:29;;;;;;;4.33;2.00;;;;;;;-0.42;100.00;101208.97;5013452;28;20231;-72
2022/04/11 02:25:56;;;;;;;3.50;1.97;;;;;;;-0.49;100.00;101198.47;5000379;28;20211;-73
2022/04/11 02:28:22;;;;;;;2.83;1.90;;;;;;;-0.62;100.00;101208.38;5015473;28;20217;-73
2022/04/11 02:30:52;;;;;;;6.63;2.37;;;;;;;-0.73;100.00;101201.22;5001504;28;20240;-73
2022/04/11 02:33:19;;;;;;;7.37;2.47;;;;;;;-0.75;100.00;101213.13;5003162;28;20215;-72
2022/04/11 02:35:45;;;;;;;4.33;2.60;;;;;;;-0.83;100.00;101210.31;5001220;28;20565;-72
2022/04/11 02:38:13;;;;;;;7.93;2.93;;;;;;;-0.84;100.00;101213.72;5001436;28;20284;-73
2022/04/11 02:40:41;;;;;;;7.93;3.03;;;;;;;-0.90;100.00;101211.81;4996134;28;20193;-73
2022/04/11 02:43:19;;;;;;;4.07;2.40;;;;;;;-0.90;100.00;101210.97;5015745;28;20675;-72
2022/04/11 02:45:53;;;;;;;8.67;2.80;;;;;;;-0.96;100.00;101201.41;5001959;28;20236;-73
2022/04/11 02:48:25;;;;;;;6.00;2.63;;;;;;;-0.98;100.00;101203.06;5001711;28;20256;-73
2022/04/11 02:50:59;;;;;;;7.63;3.07;;;;;;;-1.00;100.00;101200.44;4999875;28;20327;-73
2022/04/11 02:53:33;;;;;;;5.47;3.03;;;;;;;-1.05;100.00;101199.44;5014287;28;20650;-72
2022/04/11 02:55:59;;;;;;;9.53;3.03;;;;;;;-1.13;100.00;101211.13;5001359;28;20593;-72
2022/04/11 02:58:26;;;;;;;13.43;3.30;;;;;;;-1.12;100.00;101215.44;5001207;28;20259;-72
2022/04/11 03:00:53;;;;;;;6.03;2.90;;;;;;;-1.17;100.00;101212.72;5013330;28;20629;-72
2022/04/11 03:03:23;;;;;;;10.87;3.00;;;;;;;-1.21;100.00;101213.47;5004390;28;20205;-72
2022/04/11 03:05:50;;;;;;;3.50;2.60;;;;;;;-1.22;100.00;101208.28;5001489;28;20423;-73
2022/04/11 03:08:17;;;;;;;8.20;3.30;;;;;;;-1.24;100.00;101203.13;5012738;28;20777;-73
2022/04/11 03:10:44;;;;;;;9.77;3.27;;;;;;;-1.27;100.00;101207.28;5001035;28;20243;-73
2022/04/11 03:13:10;;;;;;;7.60;3.30;;;;;;;-1.32;100.00;101212.22;4999912;28;20220;-72
2022/04/11 03:15:38;;;;;;;8.63;3.40;;;;;;;-1.33;100.00;101203.69;5004360;28;20204;-73
2022/04/11 03:18:06;;;;;;;8.93;3.60;;;;;;;-1.33;100.00;101207.97;5018125;28;20645;-73
2022/04/11 03:20:36;;;;;;;6.17;3.03;;;;;;;-1.41;100.00;101200.03;4998839;28;20729;-73
2022/04/11 03:23:03;;;;;;;7.67;3.60;;;;;;;-1.41;100.00;101204.28;5017348;28;20228;-72
2022/04/11 03:25:33;;;;;;;5.77;3.40;;;;;;;-1.44;100.00;101205.06;4991118;28;20594;-73
2022/04/11 03:27:59;;;;;;;6.90;3.27;;;;;;;-1.46;100.00;101208.38;5000599;28;20247;-73
2022/04/11 03:30:26;;;;;;;9.53;3.33;;;;;;;-1.48;100.00;101210.00;4995783;28;20893;-73
2022/04/11 03:32:53;;;;;;;6.30;3.90;;;;;;;-1.49;100.00;101201.47;5018799;28;20208;-72
2022/04/11 03:35:22;;;;;;;8.67;3.57;;;;;;;-1.52;100.00;101204.78;5000747;28;20201;-73
2022/04/11 03:37:48;;;;;;;10.87;3.97;;;;;;;-1.56;100.00;101200.41;4999004;28;20220;-73
2022/04/11 03:40:20;;;;;;;6.73;3.83;;;;;;;-1.54;100.00;101209.00;4998522;28;20419;-72
2022/04/11 03:42:47;;;;;;;7.53;3.80;;;;;;;-1.54;100.00;101205.56;4999957;28;20259;-73
2022/04/11 03:45:13;;;;;;;8.27;3.97;;;;;;;-1.57;100.00;101208.03;5010937;28;20927;-73
2022/04/11 03:47:42;;;;;;;9.27;4.00;;;;;;;-1.57;100.00;101208.03;4999594;28;20243;-73
2022/04/11 03:50:13;;;;;;;6.93;3.43;;;;;;;-1.63;100.00;101213.81;5000776;28;20472;-73
2022/04/11 03:52:43;;;;;;;8.63;3.80;;;;;;;-1.62;100.00;101213.00;5008024;28;20215;-72
2022/04/11 03:55:10;;;;;;;8.03;3.90;;;;;;;-1.57;100.00;101216.56;4998245;28;20284;-73
2022/04/11 03:57:42;;;;;;;7.37;3.20;;;;;;;-1.58;100.00;101213.97;5016720;22;20459;-75
2022/04/11 04:00:09;;;;;;;8.27;3.77;;;;;;;-1.50;100.00;101212.53;4992134;28;20283;-74
2022/04/11 04:03:15;;;;;;;7.27;4.10;;;;;;;-1.54;100.00;101210.69;4990158;28;20235;-75
2022/04/11 04:05:47;;;;;;;8.20;3.63;;;;;;;-1.59;100.00;101202.00;4987021;28;20240;-75
2022/04/11 04:08:20;;;;;;;6.83;3.73;;;;;;;-1.59;100.00;101213.09;4989222;28;20774;-75
2022/04/11 04:10:56;;;;;;;6.43;3.83;;;;;;;-1.63;100.00;101211.25;4964679;28;21008;-76
2022/04/11 04:13:22;;;;;;;7.07;3.77;;;;;;;-1.69;100.00;101215.28;5004993;22;20236;-75
2022/04/11 04:15:49;;;;;;;9.17;3.97;;;;;;;-1.72;100.00;101218.63;4983281;28;20739;-75
2022/04/11 04:18:17;;;;;;;8.73;4.00;;;;;;;-1.78;100.00;101215.84;4981500;28;20206;-75
2022/04/11 04:20:43;;;;;;;4.90;3.83;;;;;;;-1.66;100.00;101220.53;4987654;28;20567;-75
2022/04/11 04:23:11;;;;;;;11.27;4.60;;;;;;;-1.74;100.00;101225.38;4974413;28;20998;-75
2022/04/11 04:25:38;;;;;;;8.17;3.90;;;;;;;-1.70;100.00;101228.91;4963008;28;20472;-75
2022/04/11 04:28:05;;;;;;;6.83;3.83;;;;;;;-1.66;100.00;101223.06;4984585;28;20287;-75
2022/04/11 04:30:35;;;;;;;8.83;4.10;;;;;;;-1.66;100.00;101229.03;4967809;28;20511;-75
2022/04/11 04:33:02;;;;;;;6.47;3.50;;;;;;;-1.63;100.00;101233.41;4968853;28;20483;-75
2022/04/11 04:35:28;;;;;;;10.20;4.43;;;;;;;-1.64;100.00;101224.84;4962642;28;20216;-75
2022/04/11 04:37:59;;;;;;;7.77;3.60;;;;;;;-1.54;100.00;101224.34;4963935;28;20205;-75
2022/04/11 04:40:28;;;;;;;8.70;4.07;;;;;;;-1.49;100.00;101229.63;4967659;28;20467;-75
2022/04/11 04:42:57;;;;;;;7.37;4.07;;;;;;;-1.47;100.00;101230.53;4964438;28;20225;-75
2022/04/11 04:45:25;;;;;;;11.00;4.50;;;;;;;-1.47;100.00;101237.34;4965244;28;20197;-75
2022/04/11 04:48:06;;;;;;;11.77;4.90;;;;;;;-1.55;100.00;101226.84;4973018;28;20201;-75
2022/04/11 04:50:34;;;;;;;11.80;4.70;;;;;;;-1.47;100.00;101235.66;4965127;28;20240;-75
2022/04/11 04:53:02;;;;;;;9.10;4.67;;;;;;;-1.42;100.00;101225.56;4965246;28;20233;-75
2022/04/11 04:55:28;;;;;;;8.70;4.40;;;;;;;-1.39;100.00;101231.66;4979311;28;20264;-76
2022/04/11 04:57:55;;;;;;;15.17;4.90;;;;;;;-1.37;100.00;101230.00;4962027;28;20300;-75
2022/04/11 05:00:23;;;;;;;11.87;4.90;;;;;;;-1.23;100.00;101235.56;4978400;28;21608;-75
2022/04/11 05:02:50;;;;;;;7.77;4.77;;;;;;;-1.20;100.00;101233.09;4961004;28;20217;-76
2022/04/11 05:05:23;;;;;;;7.83;4.50;;;;;;;-1.13;100.00;101239.28;4962085;28;20253;-75
2022/04/11 05:07:53;;;;;;;10.37;4.60;;;;;;;-1.07;100.00;101239.47;4964793;28;20212;-75
2022/04/11 05:10:24;;;;;;;12.10;4.70;;;;;;;-1.18;100.00;101236.59;4962718;28;20677;-76
2022/04/11 05:12:52;;;;;;;10.60;4.93;;;;;;;-1.18;100.00;101235.69;4959776;28;20228;-75
2022/04/11 05:15:20;;;;;;;10.87;5.23;;;;;;;-1.11;100.00;101240.19;4960080;28;20212;-75
2022/04/11 05:17:53;;;;;;;10.60;4.70;;;;;;;-1.07;100.00;101238.59;4963240;28;20201;-75
2022/04/11 05:20:22;;;;;;;15.80;5.23;;;;;;;-1.12;100.00;101243.59;4975015;28;20229;-75
2022/04/11 05:22:48;;;;;;;9.17;4.93;;;;;;;-1.08;100.00;101239.44;4962746;28;20233;-75
2022/04/11 05:25:16;;;;;;;13.27;6.23;;;;;;;-1.05;100.00;101242.97;4957665;28;20210;-75
2022/04/11 05:27:42;;;;;;;10.20;5.47;;;;;;;-1.05;100.00;101234.41;4963074;28;20209;-75
2022/04/11 05:30:10;;;;;;;10.77;5.50;;;;;;;-0.97;100.00;101243.19;4956424;28;20225;-76
2022/04/11 05:32:38;;;;;;;10.57;5.13;;;;;;;-0.91;100.00;101240.81;4960113;28;20225;-75
2022/04/11 05:35:07;;;;;;;10.53;5.80;;;;;;;-0.83;100.00;101233.38;4956109;28;20311;-75
2022/04/11 05:37:35;;;;;;;18.30;6.27;;;;;;;-0.74;100.00;101236.19;4963284;28;20621;-75
2022/04/11 05:40:01;;;;;;;15.30;6.20;;;;;;;-0.72;100.00;101236.25;4962541;28;20201;-75
2022/04/11 05:42:28;;;;;;;16.07;6.53;;;;;;;-0.62;100.00;101234.00;4956689;28;20674;-75
2022/04/11 05:44:54;;;;;;;15.33;6.47;;;;;;;-0.51;100.00;101246.25;4967724;28;20288;-75
2022/04/11 05:47:21;;;;;;;20.87;7.03;;;;;;;-0.40;100.00;101240.63;4960572;28;20204;-75
2022/04/11 05:49:53;;;;;;;15.20;6.87;;;;;;;-0.28;100.00;101246.91;4966235;28;20229;-75
2022/04/11 05:52:21;;;;;;;18.87;6.77;;;;;;;-0.16;100.00;101248.94;4957953;28;20618;-75
2022/04/11 05:54:49;;;;;;;17.43;7.10;;;;;;;-0.08;100.00;101244.91;4960661;28;20736;-76
2022/04/11 05:57:16;;;;;;;15.57;7.33;;;;;;;0.03;100.00;101246.06;4978525;28;20284;-75
2022/04/11 05:59:42;;;;;;;18.37;7.30;;;;;;;0.12;100.00;101248.00;4962483;28;20230;-75
2022/04/11 06:02:09;;;;;;;18.13;7.10;;;;;;;0.23;100.00;101238.00;4976372;28;20206;-75
2022/04/11 06:04:36;;;;;;;20.90;7.37;;;;;;;0.35;100.00;101244.34;4974417;28;20756;-75
2022/04/11 06:07:04;;;;;;;16.27;8.07;;;;;;;0.45;100.00;101244.56;4959667;28;20200;-75
2022/04/11 06:09:33;;;;;;;21.63;7.63;;;;;;;0.56;100.00;101246.59;4961837;28;20220;-75
2022/04/11 06:12:00;;;;;;;19.30;8.37;;;;;;;0.69;100.00;101247.75;4960625;28;20197;-75
2022/04/11 06:14:27;;;;;;;24.70;8.60;;;;;;;0.82;100.00;101259.16;4961209;28;20601;-75
2022/04/11 06:16:54;;;;;;;19.23;7.97;;;;;;;0.93;100.00;101257.75;4952007;28;20204;-75
2022/04/11 06:19:21;;;;;;;20.60;8.57;;;;;;;1.08;100.00;101259.78;4963644;28;20733;-76
2022/04/11 06:21:47;;;;;;;20.23;9.03;;;;;;;1.15;100.00;101258.22;4977087;28;20208;-75
2022/04/11 06:24:15;;;;;;;23.37;9.53;;;;;;;1.23;100.00;101260.94;4978000;28;20629;-75
2022/04/11 06:26:43;;;;;;;18.93;9.10;;;;;;;1.29;100.00;101264.53;4977652;28;20792;-76
2022/04/11 06:29:11;;;;;;;22.90;9.40;;;;;;;1.43;100.00;101272.53;4960479;28;20208;-74
2022/04/11 06:31:38;;;;;;;26.70;10.47;;;;;;;1.55;100.00;101268.50;4954447;28;20218;-75
2022/04/11 06:34:14;;;;;;;23.67;10.47;;;;;;;1.69;100.00;101267.97;4955195;28;20220;-74
2022/04/11 06:36:41;;;;;;;19.77;9.87;;;;;;;1.79;100.00;101268.13;4958795;28;20225;-74
2022/04/11 06:39:07;;;;;;;23.83;9.53;;;;;;;1.89;100.00;101268.34;4961776;28;20205;-74
2022/04/11 06:41:43;;;;;;;20.97;10.47;;;;;;;2.04;100.00;101272.06;4975466;28;20251;-74
2022/04/11 06:44:10;;;;;;;23.00;10.03;;;;;;;2.11;100.00;101275.63;4958153;28;20754;-74
2022/04/11 06:46:42;;;;;;;19.80;10.07;;;;;;;2.19;100.00;101286.94;4956203;28;20259;-75
2022/04/11 06:49:09;;;;;;;22.70;9.67;;;;;;;2.24;100.00;101283.59;4959819;28;20206;-74
2022/04/11 06:51:35;;;;;;;19.17;9.83;;;;;;;2.35;100.00;101277.78;4957243;28;20230;-74
2022/04/11 06:54:02;;;;;;;15.03;8.90;;;;;;;2.45;100.00;101277.09;4976819;28;20231;-74
2022/04/11 06:56:28;;;;;;;16.23;8.20;;;;;;;2.56;100.00;101283.31;4970899;28;20208;-74
2022/04/11 06:58:56;;;;;;;15.40;8.23;;;;;;;2.62;100.00;101280.84;4975197;28;20216;-74
2022/04/11 07:01:22;;;;;;;12.83;7.93;;;;;;;2.77;100.00;101290.53;4975460;28;20212;-75
2022/04/11 07:03:50;;;;;;;14.83;6.93;;;;;;;2.80;100.00;101288.00;4981398;28;20465;-74
2022/04/11 07:06:16;;;;;;;14.00;7.10;;;;;;;2.87;100.00;101290.66;4977441;28;20217;-74
2022/04/11 07:08:42;;;;;;;12.30;6.30;;;;;;;3.00;100.00;101283.16;4979790;28;20198;-74
2022/04/11 07:11:09;;;;;;;9.67;5.93;;;;;;;3.15;100.00;101294.53;4986732;28;20213;-74
2022/04/11 07:13:35;;;;;;;9.37;5.63;;;;;;;3.19;100.00;101292.03;4982843;28;20237;-75
2022/04/11 07:16:03;;;;;;;7.77;5.63;;;;;;;3.28;100.00;101296.47;4983241;28;20205;-75
2022/04/11 07:18:31;;;;;;;9.93;5.53;;;;;;;3.45;100.00;101299.28;4985102;28;20213;-75
2022/04/11 07:20:58;;;;;;;8.53;4.83;;;;;;;3.44;100.00;101292.38;4983851;28;20256;-74
2022/04/11 07:23:24;;;;;;;5.87;4.63;;;;;;;3.50;100.00;101296.75;4983480;28;20225;-74
2022/04/11 07:25:50;;;;;;;8.67;4.30;;;;;;;3.57;100.00;101293.41;4985922;28;20407;-75
2022/04/11 07:28:17;;;;;;;8.70;5.33;;;;;;;3.69;100.00;101298.72;4980344;28;20215;-74
2022/04/11 07:30:44;;;;;;;7.37;4.27;;;;;;;3.82;100.00;101304.03;4979612;28;20585;-74
2022/04/11 07:33:12;;;;;;;9.00;5.07;;;;;;;3.88;100.00;101302.41;4982434;28;20229;-75
2022/04/11 07:35:38;;;;;;;6.77;4.10;;;;;;;3.91;100.00;101304.19;4983297;28;20201;-75
2022/04/11 07:38:04;;;;;;;6.57;3.77;;;;;;;3.98;100.00;101303.41;4979880;28;20213;-75
2022/04/11 07:40:31;;;;;;;7.37;3.97;;;;;;;4.06;100.00;101303.47;4982543;28;20197;-74
2022/04/11 07:42:57;;;;;;;6.47;4.50;;;;;;;4.20;100.00;101303.63;4976955;28;20228;-74
2022/04/11 07:45:24;;;;;;;6.23;3.70;;;;;;;4.34;100.00;101312.38;4980506;28;20216;-74
2022/04/11 07:47:50;;;;;;;7.40;3.53;;;;;;;4.45;100.00;101305.63;4974550;28;20209;-74
2022/04/11 07:50:18;;;;;;;6.30;3.83;;;;;;;4.51;100.00;101308.25;4979612;28;20573;-75
2022/04/11 07:52:45;;;;;;;6.63;3.30;;;;;;;4.57;100.00;101312.63;4976479;28;20229;-74
2022/04/11 07:55:15;;;;;;;5.67;2.97;;;;;;;4.66;100.00;101323.06;4980348;28;20194;-74
2022/04/11 07:57:42;;;;;;;7.67;3.50;;;;;;;4.71;98.96;101323.09;4979522;28;20259;-74
2022/04/11 08:00:10;;;;;;;8.13;4.17;;;;;;;4.85;100.00;101315.47;4981439;28;20209;-74
2022/04/11 08:02:40;;;;;;;20.40;12.47;;;;;;;4.93;98.95;101319.84;4979667;28;20331;-75
2022/04/11 08:05:08;;;;;;;14.93;8.77;;;;;;;5.02;98.53;101319.03;4987367;28;20247;-74
2022/04/11 08:07:36;;;;;;;4.30;3.80;;;;;;;5.08;100.00;101313.06;4978330;28;20249;-74
2022/04/11 08:10:03;;;;;;;5.50;2.90;;;;;;;5.13;98.88;101325.16;4979631;28;20204;-75
2022/04/11 08:12:30;;;;;;;4.87;2.90;;;;;;;5.21;95.69;101321.78;4979479;28;20604;-74
2022/04/11 08:14:57;;;;;;;5.77;2.40;;;;;;;5.36;95.94;101318.41;4977678;28;20228;-75
2022/04/11 08:17:23;;;;;;;3.67;2.50;;;;;;;5.37;88.15;101341.72;4981890;28;20213;-75
2022/04/11 08:19:50;;;;;;;4.83;2.73;;;;;;;5.43;88.35;101327.94;4980044;28;20583;-75
2022/04/11 08:22:16;;;;;;;3.47;2.50;;;;;;;5.50;88.75;101332.31;4958705;28;20409;-74
2022/04/11 08:24:44;;;;;;;3.30;1.83;;;;;;;5.53;84.50;101329.75;4980269;28;20313;-74
2022/04/11 08:27:10;;;;;;;6.10;3.27;;;;;;;5.61;84.00;101335.84;4980228;28;20205;-74
2022/04/11 08:29:37;;;;;;;4.50;2.03;;;;;;;5.66;79.67;101348.78;4978277;28;21033;-74
2022/04/11 08:32:03;;;;;;;3.80;2.60;;;;;;;5.76;79.53;101341.94;4980900;28;20225;-74
2022/04/11 08:34:30;;;;;;;3.27;2.00;;;;;;;5.74;82.38;101335.91;4979610;28;20732;-74
2022/04/11 08:36:56;;;;;;;4.33;2.10;;;;;;;5.98;84.16;101330.88;4983295;28;20785;-75
2022/04/11 08:39:23;;;;;;;3.13;1.80;;;;;;;6.02;81.63;101332.59;4979047;28;20877;-74
2022/04/11 08:41:51;;;;;;;3.83;1.43;;;;;;;6.04;78.33;101335.19;4986760;28;20208;-74
2022/04/11 08:44:20;;;;;;;2.97;1.50;;;;;;;6.16;81.95;101337.84;4978776;28;20217;-74
2022/04/11 08:46:48;;;;;;;2.17;1.43;;;;;;;6.11;76.42;101341.28;4981591;28;20570;-74
2022/04/11 08:49:15;;;;;;;3.37;1.20;;;;;;;6.13;77.25;101340.41;4980913;28;20193;-75
2022/04/11 08:51:42;;;;;;;2.50;1.87;;;;;;;6.31;77.52;101338.72;4977636;28;20308;-75
2022/04/11 08:54:08;;;;;;;2.50;1.40;;;;;;;6.33;72.35;101349.97;4976816;28;20225;-75
2022/04/11 08:56:35;;;;;;;3.27;1.40;;;;;;;6.38;73.17;101333.56;4975940;28;20597;-74
2022/04/11 08:59:03;;;;;;;1.63;1.10;;;;;;;6.38;71.03;101345.66;4976116;28;20491;-75
2022/04/11 09:01:29;;;;;;;3.53;1.33;;;;;;;6.48;72.36;101343.97;4976291;28;20257;-75
2022/04/11 09:03:55;;;;;;;1.20;1.10;;;;;;;6.41;73.88;101333.56;4971276;28;20229;-75
2022/04/11 09:06:23;;;;;;;5.23;1.03;;;;;;;6.31;67.68;101349.09;4969815;28;20220;-74
2022/04/11 09:08:51;;;;;;;2.47;1.20;;;;;;;6.43;70.35;101333.59;4971235;28;20205;-74
2022/04/11 09:11:30;;;;;;;1.40;1.00;;;;;;;6.58;72.17;101330.19;4976171;28;20224;-74
2022/04/11 09:13:56;;;;;;;1.07;0.97;;;;;;;6.73;68.78;101334.50;4979651;28;20232;-75
2022/04/11 09:16:24;;;;;;;3.80;1.10;;;;;;;6.86;62.91;101344.03;4977378;28;20229;-74
2022/04/11 09:18:52;;;;;;;1.77;0.93;;;;;;;6.95;60.20;101350.94;4981990;28;20237;-74
2022/04/11 09:21:19;;;;;;;1.27;1.00;;;;;;;6.92;60.89;101333.66;4978123;28;20513;-74
2022/04/11 09:23:46;;;;;;;2.00;1.00;;;;;;;6.95;58.72;101344.03;4973616;28;20227;-74
2022/04/11 09:26:17;;;;;;;4.17;1.20;;;;;;;7.16;66.15;101322.41;4976241;28;20577;-74
2022/04/11 09:28:43;;;;;;;2.83;1.07;;;;;;;7.18;59.33;101340.56;4976626;28;20204;-74
2022/04/11 09:31:10;;;;;;;2.53;0.90;;;;;;;7.06;60.74;101337.97;4975389;28;20224;-74
2022/04/11 09:33:40;;;;;;;1.07;0.83;;;;;;;7.07;61.16;101325.03;4973060;28;20281;-74
2022/04/11 09:36:07;;;;;;;1.17;0.90;;;;;;;7.19;57.86;101329.31;4977071;28;20198;-74
2022/04/11 09:38:37;;;;;;;2.03;1.50;;;;;;;7.29;60.64;101327.59;4973674;28;20229;-74
2022/04/11 09:41:03;;;;;;;0.90;0.90;;;;;;;7.29;60.43;101325.84;4977162;28;20237;-74
2022/04/11 09:43:31;;;;;;;5.27;1.10;;;;;;;7.38;59.70;101324.97;4976324;28;20222;-74
2022/04/11 09:45:59;;;;;;;1.67;1.00;;;;;;;7.53;61.05;101316.31;4979542;28;20588;-74
2022/04/11 09:48:27;;;;;;;1.50;1.20;;;;;;;7.55;61.93;101312.81;4974536;28;20205;-73
2022/04/11 09:50:58;;;;;;;2.03;1.33;;;;;;;7.70;59.65;101304.13;4973671;28;20229;-74
2022/04/11 09:53:30;;;;;;;1.13;1.00;;;;;;;7.83;58.24;101299.75;4979189;28;20256;-74
2022/04/11 09:55:56;;;;;;;2.93;1.57;;;;;;;7.91;60.28;101302.31;4976749;28;20735;-75
2022/04/11 09:58:24;;;;;;;5.77;2.90;;;;;;;8.10;58.89;101308.28;4975840;28;20207;-74
2022/04/11 10:00:52;;;;;;;3.23;1.27;;;;;;;8.06;62.96;101306.59;4975052;28;20848;-73
2022/04/11 10:03:21;;;;;;;1.57;1.37;;;;;;;8.10;61.02;101301.34;4975475;28;20232;-74
2022/04/11 10:05:49;;;;;;;2.97;1.47;;;;;;;7.86;57.71;101317.94;4979679;28;20202;-75
2022/04/11 10:08:16;;;;;;;2.83;1.77;;;;;;;7.91;58.04;101307.50;4979353;28;20884;-74
2022/04/11 10:10:43;;;;;;;2.17;1.40;;;;;;;7.95;54.72;101315.28;4975379;28;20202;-74
2022/04/11 10:13:11;;;;;;;2.80;1.63;;;;;;;7.97;56.02;101313.53;4995569;23;20566;-72
2022/04/11 10:15:38;;;;;;;14.97;1.43;;;;;;;8.15;51.83;101317.78;4996321;28;20217;-72
2022/04/11 10:18:07;;;;;;;3.93;1.43;;;;;;;8.41;54.00;101305.50;4999536;28;20203;-71
2022/04/11 10:20:37;;;;;;;3.87;1.40;;;;;;;8.76;55.78;101304.44;4998119;28;20211;-72
2022/04/11 10:23:15;;;;;;;3.40;1.70;;;;;;;8.55;56.44;101306.34;4997673;28;20219;-72
2022/04/11 10:25:48;;;;;;;2.10;1.30;;;;;;;8.27;53.54;101316.88;5004274;28;20712;-72
2022/04/11 10:28:16;;;;;;;3.23;1.83;;;;;;;8.24;54.11;101303.88;5000847;28;20561;-72
2022/04/11 10:30:44;;;;;;;2.70;1.73;;;;;;;8.22;58.34;101292.63;4995047;28;20283;-72
2022/04/11 10:33:10;;;;;;;4.33;1.80;;;;;;;8.30;57.56;101295.19;4991014;28;20197;-72
2022/04/11 10:35:41;;;;;;;3.87;1.70;;;;;;;8.29;57.11;101293.47;5004665;28;20562;-72
2022/04/11 10:38:09;;;;;;;2.63;1.70;;;;;;;8.18;57.38;101288.34;5002700;28;20209;-72
2022/04/11 10:40:37;;;;;;;3.50;1.37;;;;;;;8.11;56.39;101295.31;5009010;28;20608;-72
2022/04/11 10:43:18;;;;;;;5.20;1.70;;;;;;;8.32;55.25;101293.47;4995736;28;20232;-71
2022/04/11 10:45:55;;;;;;;2.77;1.50;;;;;;;8.50;54.08;101290.75;4998595;28;20221;-71
2022/04/11 10:48:42;;;;;;;4.73;1.63;;;;;;;8.45;53.09;101296.88;4991444;28;20233;-72
2022/04/11 10:51:16;;;;;;;4.03;1.80;;;;;;;8.25;49.10;101308.22;5002021;28;20217;-72
2022/04/11 10:54:18;;;;;;;3.57;1.90;;;;;;;8.23;53.53;101303.88;5004215;28;20233;-72
2022/04/11 10:56:51;;;;;;;6.33;1.83;;;;;;;8.17;52.70;101303.94;5007300;28;20278;-72
2022/04/11 10:59:27;;;;;;;3.83;2.43;;;;;;;8.14;51.70;101300.50;5005837;28;20221;-72
2022/04/11 11:01:59;;;;;;;3.47;1.77;;;;;;;8.20;49.95;101301.31;5010090;28;20651;-72
2022/04/11 11:04:30;;;;;;;2.90;1.80;;;;;;;8.17;49.13;101299.59;4997633;28;20226;-72
2022/04/11 11:07:25;;;;;;;3.40;2.10;;;;;;;8.17;49.51;101293.53;5013731;28;20297;-72
2022/04/11 11:09:59;;;;;;;4.30;1.50;;;;;;;8.31;50.55;101289.97;5011803;28;20632;-72
2022/04/11 11:12:26;;;;;;;3.17;1.43;;;;;;;8.34;51.18;101284.78;4999977;28;20221;-72
2022/04/11 11:14:55;;;;;;;2.47;1.60;;;;;;;8.60;53.04;101290.69;4999677;28;20246;-71
2022/04/11 11:17:21;;;;;;;3.80;2.07;;;;;;;8.86;51.32;101277.47;5002444;28;20236;-72
2022/04/11 11:20:06;;;;;;;2.43;1.60;;;;;;;8.93;48.15;101275.69;4998603;28;20202;-72
2022/04/11 11:22:34;;;;;;;3.67;1.57;;;;;;;8.94;47.30;101270.50;4992207;28;20218;-72
2022/04/11 11:25:17;;;;;;;4.37;2.10;;;;;;;8.78;49.48;101268.91;5004592;28;20281;-72
2022/04/11 11:27:45;;;;;;;2.90;1.80;;;;;;;8.84;49.17;101264.50;4991425;28;20208;-72